sensor_id;sensor_type;location;lat;lon;timestamp;pressure;altitude;pressure_sealevel;temperature
72236;BMP280;60146;52.498;13.462;2023-07-31T00:01:10;100731.31;;;17.36
72236;BMP280;60146;52.498;13.462;2023-07-31T00:03:36;100724.22;;;17.28
72236;BMP280;60146;52.498;13.462;2023-07-31T00:06:01;100719.97;;;17.15
72236;BMP280;60146;52.498;13.462;2023-07-31T00:08:26;100718.09;;;17.16
72236;BMP280;60146;52.498;13.462;2023-07-31T00:10:52;100714.50;;;17.12
72236;BMP280;60146;52.498;13.462;2023-07-31T00:13:18;100721.47;;;17.16
72236;BMP280;60146;52.498;13.462;2023-07-31T00:15:43;100714.97;;;17.14
72236;BMP280;60146;52.498;13.462;2023-07-31T00:18:09;100714.78;;;17.19
72236;BMP280;60146;52.498;13.462;2023-07-31T00:20:34;100715.91;;;17.18
72236;BMP280;60146;52.498;13.462;2023-07-31T00:22:59;100712.66;;;17.12
72236;BMP280;60146;52.498;13.462;2023-07-31T00:25:24;100703.59;;;17.13
72236;BMP280;60146;52.498;13.462;2023-07-31T00:27:50;100702.41;;;17.11
72236;BMP280;60146;52.498;13.462;2023-07-31T00:30:15;100696.31;;;17.10
72236;BMP280;60146;52.498;13.462;2023-07-31T00:32:41;100685.97;;;17.17
72236;BMP280;60146;52.498;13.462;2023-07-31T00:35:06;100689.41;;;17.18
72236;BMP280;60146;52.498;13.462;2023-07-31T00:37:32;100685.34;;;17.20
72236;BMP280;60146;52.498;13.462;2023-07-31T00:39:57;100677.94;;;17.25
72236;BMP280;60146;52.498;13.462;2023-07-31T00:42:24;100683.72;;;17.27
72236;BMP280;60146;52.498;13.462;2023-07-31T00:44:50;100679.28;;;17.31
72236;BMP280;60146;52.498;13.462;2023-07-31T00:47:15;100668.63;;;17.40
72236;BMP280;60146;52.498;13.462;2023-07-31T00:49:41;100666.75;;;17.40
72236;BMP280;60146;52.498;13.462;2023-07-31T00:52:07;100674.69;;;17.40
72236;BMP280;60146;52.498;13.462;2023-07-31T00:54:32;100672.03;;;17.40
72236;BMP280;60146;52.498;13.462;2023-07-31T00:56:59;100676.47;;;17.36
72236;BMP280;60146;52.498;13.462;2023-07-31T00:59:24;100679.13;;;17.36
72236;BMP280;60146;52.498;13.462;2023-07-31T01:01:50;100669.16;;;17.33
72236;BMP280;60146;52.498;13.462;2023-07-31T01:04:16;100675.38;;;17.37
72236;BMP280;60146;52.498;13.462;2023-07-31T01:12:16;100660.16;;;17.46
72236;BMP280;60146;52.498;13.462;2023-07-31T01:15:08;100663.00;;;17.53
72236;BMP280;60146;52.498;13.462;2023-07-31T01:17:36;100648.66;;;17.54
72236;BMP280;60146;52.498;13.462;2023-07-31T01:20:04;100643.53;;;17.57
72236;BMP280;60146;52.498;13.462;2023-07-31T01:22:54;100645.41;;;17.57
72236;BMP280;60146;52.498;13.462;2023-07-31T01:25:34;100639.66;;;17.55
72236;BMP280;60146;52.498;13.462;2023-07-31T01:28:11;100648.06;;;17.57
72236;BMP280;60146;52.498;13.462;2023-07-31T01:30:48;100649.56;;;17.58
72236;BMP280;60146;52.498;13.462;2023-07-31T01:33:15;100637.78;;;17.55
72236;BMP280;60146;52.498;13.462;2023-07-31T01:35:44;100642.06;;;17.60
72236;BMP280;60146;52.498;13.462;2023-07-31T01:38:10;100647.59;;;17.55
72236;BMP280;60146;52.498;13.462;2023-07-31T01:40:35;100638.22;;;17.57
72236;BMP280;60146;52.498;13.462;2023-07-31T01:43:01;100631.47;;;17.60
72236;BMP280;60146;52.498;13.462;2023-07-31T01:45:26;100631.47;;;17.60
72236;BMP280;60146;52.498;13.462;2023-07-31T01:47:52;100625.06;;;17.61
72236;BMP280;60146;52.498;13.462;2023-07-31T01:50:17;100616.03;;;17.62
72236;BMP280;60146;52.498;13.462;2023-07-31T01:52:42;100627.84;;;17.64
72236;BMP280;60146;52.498;13.462;2023-07-31T01:55:08;100621.31;;;17.73
72236;BMP280;60146;52.498;13.462;2023-07-31T01:57:33;100611.81;;;17.72
72236;BMP280;60146;52.498;13.462;2023-07-31T01:59:58;100611.63;;;17.77
72236;BMP280;60146;52.498;13.462;2023-07-31T02:02:24;100607.19;;;17.81
72236;BMP280;60146;52.498;13.462;2023-07-31T02:04:49;100604.22;;;17.83
72236;BMP280;60146;52.498;13.462;2023-07-31T02:07:15;100610.31;;;17.83
72236;BMP280;60146;52.498;13.462;2023-07-31T02:09:40;100608.97;;;17.89
72236;BMP280;60146;52.498;13.462;2023-07-31T02:12:06;100620.69;;;17.88
72236;BMP280;60146;52.498;13.462;2023-07-31T02:14:33;100617.38;;;17.91
72236;BMP280;60146;52.498;13.462;2023-07-31T02:16:59;100613.06;;;17.86
72236;BMP280;60146;52.498;13.462;2023-07-31T02:19:24;100609.97;;;17.84
72236;BMP280;60146;52.498;13.462;2023-07-31T02:21:49;100599.38;;;17.96
72236;BMP280;60146;52.498;13.462;2023-07-31T02:24:15;100604.44;;;17.89
72236;BMP280;60146;52.498;13.462;2023-07-31T02:26:40;100602.47;;;17.86
72236;BMP280;60146;52.498;13.462;2023-07-31T02:29:08;100599.72;;;17.83
72236;BMP280;60146;52.498;13.462;2023-07-31T02:31:33;100604.13;;;17.79
72236;BMP280;60146;52.498;13.462;2023-07-31T02:33:58;100598.81;;;17.79
72236;BMP280;60146;52.498;13.462;2023-07-31T02:36:23;100597.59;;;17.77
72236;BMP280;60146;52.498;13.462;2023-07-31T02:38:49;100590.50;;;17.81
72236;BMP280;60146;52.498;13.462;2023-07-31T02:41:14;100591.09;;;17.74
72236;BMP280;60146;52.498;13.462;2023-07-31T02:43:39;100591.97;;;17.78
72236;BMP280;60146;52.498;13.462;2023-07-31T02:46:05;100576.16;;;17.82
72236;BMP280;60146;52.498;13.462;2023-07-31T02:48:30;100582.91;;;17.79
72236;BMP280;60146;52.498;13.462;2023-07-31T02:50:55;100569.88;;;17.74
72236;BMP280;60146;52.498;13.462;2023-07-31T02:53:21;100576.91;;;17.82
72236;BMP280;60146;52.498;13.462;2023-07-31T02:55:48;100571.53;;;17.79
72236;BMP280;60146;52.498;13.462;2023-07-31T02:58:13;100582.03;;;17.75
72236;BMP280;60146;52.498;13.462;2023-07-31T03:00:45;100580.22;;;17.67
72236;BMP280;60146;52.498;13.462;2023-07-31T03:03:10;100581.19;;;17.63
72236;BMP280;60146;52.498;13.462;2023-07-31T03:05:36;100582.22;;;17.59
72236;BMP280;60146;52.498;13.462;2023-07-31T03:08:01;100575.34;;;17.58
72236;BMP280;60146;52.498;13.462;2023-07-31T03:10:27;100585.06;;;17.54
72236;BMP280;60146;52.498;13.462;2023-07-31T03:12:52;100574.25;;;17.47
72236;BMP280;60146;52.498;13.462;2023-07-31T03:15:17;100573.78;;;17.45
72236;BMP280;60146;52.498;13.462;2023-07-31T03:17:43;100579.41;;;17.44
72236;BMP280;60146;52.498;13.462;2023-07-31T03:20:08;100566.72;;;17.49
72236;BMP280;60146;52.498;13.462;2023-07-31T03:22:34;100569.06;;;17.50
72236;BMP280;60146;52.498;13.462;2023-07-31T03:25:00;100560.66;;;17.48
72236;BMP280;60146;52.498;13.462;2023-07-31T03:27:26;100574.09;;;17.44
72236;BMP280;60146;52.498;13.462;2023-07-31T03:29:51;100570.59;;;17.51
72236;BMP280;60146;52.498;13.462;2023-07-31T03:32:17;100560.78;;;17.52
72236;BMP280;60146;52.498;13.462;2023-07-31T03:34:42;100556.59;;;17.51
72236;BMP280;60146;52.498;13.462;2023-07-31T03:37:08;100563.06;;;17.53
72236;BMP280;60146;52.498;13.462;2023-07-31T03:39:34;100554.84;;;17.55
72236;BMP280;60146;52.498;13.462;2023-07-31T03:42:00;100551.94;;;17.60
72236;BMP280;60146;52.498;13.462;2023-07-31T03:44:25;100551.53;;;17.69
72236;BMP280;60146;52.498;13.462;2023-07-31T03:46:50;100549.63;;;17.70
72236;BMP280;60146;52.498;13.462;2023-07-31T03:49:16;100551.94;;;17.71
72236;BMP280;60146;52.498;13.462;2023-07-31T03:51:41;100548.44;;;17.56
72236;BMP280;60146;52.498;13.462;2023-07-31T03:54:06;100552.72;;;17.60
72236;BMP280;60146;52.498;13.462;2023-07-31T03:56:33;100541.09;;;17.53
72236;BMP280;60146;52.498;13.462;2023-07-31T03:58:58;100543.41;;;17.54
72236;BMP280;60146;52.498;13.462;2023-07-31T04:01:23;100539.56;;;17.52
72236;BMP280;60146;52.498;13.462;2023-07-31T04:03:49;100537.94;;;17.71
72236;BMP280;60146;52.498;13.462;2023-07-31T04:06:14;100539.69;;;17.67
72236;BMP280;60146;52.498;13.462;2023-07-31T04:08:43;100543.91;;;17.68
72236;BMP280;60146;52.498;13.462;2023-07-31T04:11:09;100545.13;;;17.70
72236;BMP280;60146;52.498;13.462;2023-07-31T04:13:34;100538.78;;;17.63
72236;BMP280;60146;52.498;13.462;2023-07-31T04:15:59;100538.16;;;17.66
72236;BMP280;60146;52.498;13.462;2023-07-31T04:18:25;100546.75;;;17.63
72236;BMP280;60146;52.498;13.462;2023-07-31T04:20:51;100530.84;;;17.63
72236;BMP280;60146;52.498;13.462;2023-07-31T04:23:16;100530.53;;;17.64
72236;BMP280;60146;52.498;13.462;2023-07-31T04:25:41;100517.94;;;17.62
72236;BMP280;60146;52.498;13.462;2023-07-31T04:28:07;100524.34;;;17.61
72236;BMP280;60146;52.498;13.462;2023-07-31T04:30:32;100524.16;;;17.65
72236;BMP280;60146;52.498;13.462;2023-07-31T04:32:58;100521.66;;;17.72
72236;BMP280;60146;52.498;13.462;2023-07-31T04:35:23;100524.22;;;17.69
72236;BMP280;60146;52.498;13.462;2023-07-31T04:37:48;100517.28;;;17.76
72236;BMP280;60146;52.498;13.462;2023-07-31T04:40:15;100516.41;;;17.84
72236;BMP280;60146;52.498;13.462;2023-07-31T04:42:40;100520.34;;;17.90
72236;BMP280;60146;52.498;13.462;2023-07-31T04:45:07;100525.75;;;17.82
72236;BMP280;60146;52.498;13.462;2023-07-31T04:47:32;100525.31;;;17.91
72236;BMP280;60146;52.498;13.462;2023-07-31T04:49:58;100518.25;;;17.95
72236;BMP280;60146;52.498;13.462;2023-07-31T04:52:23;100513.81;;;17.99
72236;BMP280;60146;52.498;13.462;2023-07-31T04:54:48;100504.66;;;17.97
72236;BMP280;60146;52.498;13.462;2023-07-31T04:57:14;100515.28;;;17.97
72236;BMP280;60146;52.498;13.462;2023-07-31T04:59:39;100519.25;;;18.02
72236;BMP280;60146;52.498;13.462;2023-07-31T05:02:05;100516.59;;;18.02
72236;BMP280;60146;52.498;13.462;2023-07-31T05:04:30;100519.81;;;17.84
72236;BMP280;60146;52.498;13.462;2023-07-31T05:06:55;100509.19;;;17.96
72236;BMP280;60146;52.498;13.462;2023-07-31T05:09:21;100497.47;;;17.97
72236;BMP280;60146;52.498;13.462;2023-07-31T05:11:46;100510.94;;;18.04
72236;BMP280;60146;52.498;13.462;2023-07-31T05:14:11;100501.31;;;18.11
72236;BMP280;60146;52.498;13.462;2023-07-31T05:16:36;100500.75;;;18.18
72236;BMP280;60146;52.498;13.462;2023-07-31T05:19:02;100513.78;;;18.22
72236;BMP280;60146;52.498;13.462;2023-07-31T05:21:27;100506.56;;;18.35
72236;BMP280;60146;52.498;13.462;2023-07-31T05:23:53;100517.13;;;18.46
72236;BMP280;60146;52.498;13.462;2023-07-31T05:26:18;100511.59;;;18.51
72236;BMP280;60146;52.498;13.462;2023-07-31T05:28:43;100510.94;;;18.42
72236;BMP280;60146;52.498;13.462;2023-07-31T05:31:09;100504.91;;;18.57
72236;BMP280;60146;52.498;13.462;2023-07-31T05:33:34;100507.19;;;18.43
72236;BMP280;60146;52.498;13.462;2023-07-31T05:35:59;100503.91;;;18.35
72236;BMP280;60146;52.498;13.462;2023-07-31T05:38:25;100502.78;;;18.36
72236;BMP280;60146;52.498;13.462;2023-07-31T05:40:50;100501.69;;;18.37
72236;BMP280;60146;52.498;13.462;2023-07-31T05:43:15;100506.22;;;18.36
72236;BMP280;60146;52.498;13.462;2023-07-31T05:45:44;100496.25;;;18.45
72236;BMP280;60146;52.498;13.462;2023-07-31T05:48:09;100493.72;;;18.37
72236;BMP280;60146;52.498;13.462;2023-07-31T05:50:34;100495.25;;;18.38
72236;BMP280;60146;52.498;13.462;2023-07-31T05:53:00;100500.19;;;18.24
72236;BMP280;60146;52.498;13.462;2023-07-31T05:55:25;100497.09;;;18.22
72236;BMP280;60146;52.498;13.462;2023-07-31T05:57:54;100489.31;;;18.29
72236;BMP280;60146;52.498;13.462;2023-07-31T06:00:19;100489.16;;;18.49
72236;BMP280;60146;52.498;13.462;2023-07-31T06:02:46;100479.25;;;18.61
72236;BMP280;60146;52.498;13.462;2023-07-31T06:05:12;100489.88;;;18.61
72236;BMP280;60146;52.498;13.462;2023-07-31T06:07:37;100496.03;;;18.65
72236;BMP280;60146;52.498;13.462;2023-07-31T06:10:03;100489.72;;;18.69
72236;BMP280;60146;52.498;13.462;2023-07-31T06:12:32;100484.84;;;18.71
72236;BMP280;60146;52.498;13.462;2023-07-31T06:14:58;100494.00;;;18.47
72236;BMP280;60146;52.498;13.462;2023-07-31T06:17:24;100488.47;;;18.52
72236;BMP280;60146;52.498;13.462;2023-07-31T06:19:50;100481.72;;;18.54
72236;BMP280;60146;52.498;13.462;2023-07-31T06:22:15;100481.66;;;18.66
72236;BMP280;60146;52.498;13.462;2023-07-31T06:24:40;100480.38;;;18.75
72236;BMP280;60146;52.498;13.462;2023-07-31T06:27:06;100477.28;;;18.73
72236;BMP280;60146;52.498;13.462;2023-07-31T06:29:32;100491.28;;;18.85
72236;BMP280;60146;52.498;13.462;2023-07-31T06:31:58;100494.41;;;18.87
72236;BMP280;60146;52.498;13.462;2023-07-31T06:34:24;100487.34;;;18.79
72236;BMP280;60146;52.498;13.462;2023-07-31T06:36:49;100490.16;;;18.86
72236;BMP280;60146;52.498;13.462;2023-07-31T06:39:14;100484.53;;;18.88
72236;BMP280;60146;52.498;13.462;2023-07-31T06:41:39;100483.31;;;18.85
72236;BMP280;60146;52.498;13.462;2023-07-31T06:44:05;100487.03;;;18.96
72236;BMP280;60146;52.498;13.462;2023-07-31T06:46:30;100484.94;;;18.90
72236;BMP280;60146;52.498;13.462;2023-07-31T06:48:56;100476.66;;;19.06
72236;BMP280;60146;52.498;13.462;2023-07-31T06:51:21;100483.78;;;19.17
72236;BMP280;60146;52.498;13.462;2023-07-31T06:53:46;100484.28;;;19.38
72236;BMP280;60146;52.498;13.462;2023-07-31T06:56:12;100479.56;;;19.32
72236;BMP280;60146;52.498;13.462;2023-07-31T06:58:37;100482.03;;;19.40
72236;BMP280;60146;52.498;13.462;2023-07-31T07:01:03;100487.34;;;19.40
72236;BMP280;60146;52.498;13.462;2023-07-31T07:03:28;100489.25;;;19.39
72236;BMP280;60146;52.498;13.462;2023-07-31T07:05:54;100482.91;;;19.14
72236;BMP280;60146;52.498;13.462;2023-07-31T07:08:19;100489.28;;;19.24
72236;BMP280;60146;52.498;13.462;2023-07-31T07:10:44;100485.56;;;19.29
72236;BMP280;60146;52.498;13.462;2023-07-31T07:13:10;100495.00;;;19.11
72236;BMP280;60146;52.498;13.462;2023-07-31T07:15:35;100483.97;;;19.09
72236;BMP280;60146;52.498;13.462;2023-07-31T07:18:00;100493.72;;;19.20
72236;BMP280;60146;52.498;13.462;2023-07-31T07:20:26;100490.00;;;18.79
72236;BMP280;60146;52.498;13.462;2023-07-31T07:22:51;100496.69;;;18.89
72236;BMP280;60146;52.498;13.462;2023-07-31T07:25:16;100491.13;;;18.94
72236;BMP280;60146;52.498;13.462;2023-07-31T07:27:42;100488.81;;;18.92
72236;BMP280;60146;52.498;13.462;2023-07-31T07:30:07;100485.63;;;19.02
72236;BMP280;60146;52.498;13.462;2023-07-31T07:32:33;100502.28;;;19.29
72236;BMP280;60146;52.498;13.462;2023-07-31T07:34:59;100482.75;;;19.37
72236;BMP280;60146;52.498;13.462;2023-07-31T07:37:24;100481.63;;;19.38
72236;BMP280;60146;52.498;13.462;2023-07-31T07:39:49;100477.31;;;19.49
72236;BMP280;60146;52.498;13.462;2023-07-31T07:42:15;100477.44;;;19.71
72236;BMP280;60146;52.498;13.462;2023-07-31T07:44:40;100479.16;;;19.78
72236;BMP280;60146;52.498;13.462;2023-07-31T07:47:06;100483.56;;;19.89
72236;BMP280;60146;52.498;13.462;2023-07-31T07:49:33;100479.94;;;20.16
72236;BMP280;60146;52.498;13.462;2023-07-31T07:52:03;100481.56;;;20.02
72236;BMP280;60146;52.498;13.462;2023-07-31T07:54:31;100473.00;;;19.93
72236;BMP280;60146;52.498;13.462;2023-07-31T07:56:56;100474.50;;;20.09
72236;BMP280;60146;52.498;13.462;2023-07-31T07:59:22;100474.75;;;20.04
72236;BMP280;60146;52.498;13.462;2023-07-31T08:01:47;100478.13;;;19.83
72236;BMP280;60146;52.498;13.462;2023-07-31T08:04:12;100470.38;;;19.78
72236;BMP280;60146;52.498;13.462;2023-07-31T08:06:38;100471.00;;;19.71
72236;BMP280;60146;52.498;13.462;2023-07-31T08:09:03;100466.91;;;19.92
72236;BMP280;60146;52.498;13.462;2023-07-31T08:11:32;100474.34;;;20.02
72236;BMP280;60146;52.498;13.462;2023-07-31T08:13:57;100470.16;;;20.01
72236;BMP280;60146;52.498;13.462;2023-07-31T08:16:22;100475.28;;;19.91
72236;BMP280;60146;52.498;13.462;2023-07-31T08:18:48;100468.03;;;19.58
72236;BMP280;60146;52.498;13.462;2023-07-31T08:21:14;100468.97;;;19.65
72236;BMP280;60146;52.498;13.462;2023-07-31T08:23:40;100454.94;;;19.50
72236;BMP280;60146;52.498;13.462;2023-07-31T08:26:05;100455.66;;;19.47
72236;BMP280;60146;52.498;13.462;2023-07-31T08:28:31;100443.19;;;19.51
72236;BMP280;60146;52.498;13.462;2023-07-31T08:30:56;100445.38;;;19.64
72236;BMP280;60146;52.498;13.462;2023-07-31T08:33:21;100456.06;;;19.67
72236;BMP280;60146;52.498;13.462;2023-07-31T08:35:47;100444.75;;;19.70
72236;BMP280;60146;52.498;13.462;2023-07-31T08:38:13;100448.44;;;19.81
72236;BMP280;60146;52.498;13.462;2023-07-31T08:40:39;100452.91;;;19.95
72236;BMP280;60146;52.498;13.462;2023-07-31T08:43:04;100455.09;;;19.90
72236;BMP280;60146;52.498;13.462;2023-07-31T08:45:30;100452.72;;;19.70
72236;BMP280;60146;52.498;13.462;2023-07-31T08:47:56;100446.41;;;19.93
72236;BMP280;60146;52.498;13.462;2023-07-31T08:50:25;100448.47;;;19.99
72236;BMP280;60146;52.498;13.462;2023-07-31T08:52:51;100444.78;;;20.07
72236;BMP280;60146;52.498;13.462;2023-07-31T08:55:17;100452.16;;;19.80
72236;BMP280;60146;52.498;13.462;2023-07-31T08:57:48;100452.72;;;20.22
72236;BMP280;60146;52.498;13.462;2023-07-31T09:00:15;100453.31;;;20.16
72236;BMP280;60146;52.498;13.462;2023-07-31T09:02:46;100461.38;;;20.19
72236;BMP280;60146;52.498;13.462;2023-07-31T09:05:12;100445.47;;;20.04
72236;BMP280;60146;52.498;13.462;2023-07-31T09:07:38;100450.81;;;20.23
72236;BMP280;60146;52.498;13.462;2023-07-31T09:10:04;100452.41;;;20.27
72236;BMP280;60146;52.498;13.462;2023-07-31T09:12:30;100451.78;;;20.55
72236;BMP280;60146;52.498;13.462;2023-07-31T09:14:59;100467.88;;;20.40
72236;BMP280;60146;52.498;13.462;2023-07-31T09:17:33;100452.16;;;20.13
72236;BMP280;60146;52.498;13.462;2023-07-31T09:20:19;100455.56;;;20.14
72236;BMP280;60146;52.498;13.462;2023-07-31T09:22:46;100455.28;;;20.37
72236;BMP280;60146;52.498;13.462;2023-07-31T09:25:18;100458.53;;;20.09
72236;BMP280;60146;52.498;13.462;2023-07-31T09:27:47;100454.28;;;19.89
72236;BMP280;60146;52.498;13.462;2023-07-31T09:30:13;100457.31;;;20.07
72236;BMP280;60146;52.498;13.462;2023-07-31T09:32:38;100449.53;;;20.17
72236;BMP280;60146;52.498;13.462;2023-07-31T09:35:20;100457.25;;;20.22
72236;BMP280;60146;52.498;13.462;2023-07-31T09:37:51;100443.94;;;19.85
72236;BMP280;60146;52.498;13.462;2023-07-31T09:40:36;100448.22;;;19.55
72236;BMP280;60146;52.498;13.462;2023-07-31T09:43:22;100448.69;;;19.42
72236;BMP280;60146;52.498;13.462;2023-07-31T09:45:47;100447.75;;;19.35
72236;BMP280;60146;52.498;13.462;2023-07-31T09:48:18;100442.88;;;19.22
72236;BMP280;60146;52.498;13.462;2023-07-31T09:50:44;100442.50;;;19.53
72236;BMP280;60146;52.498;13.462;2023-07-31T09:53:10;100432.84;;;19.64
72236;BMP280;60146;52.498;13.462;2023-07-31T09:55:36;100440.75;;;19.61
72236;BMP280;60146;52.498;13.462;2023-07-31T09:58:07;100434.13;;;19.70
72236;BMP280;60146;52.498;13.462;2023-07-31T10:00:33;100437.78;;;19.62
72236;BMP280;60146;52.498;13.462;2023-07-31T10:03:00;100425.88;;;19.75
72236;BMP280;60146;52.498;13.462;2023-07-31T10:05:31;100433.81;;;19.90
72236;BMP280;60146;52.498;13.462;2023-07-31T10:07:57;100443.97;;;20.03
72236;BMP280;60146;52.498;13.462;2023-07-31T10:10:23;100428.25;;;19.98
72236;BMP280;60146;52.498;13.462;2023-07-31T10:12:49;100430.34;;;20.08
72236;BMP280;60146;52.498;13.462;2023-07-31T10:15:18;100431.38;;;20.19
72236;BMP280;60146;52.498;13.462;2023-07-31T10:17:44;100420.63;;;20.56
72236;BMP280;60146;52.498;13.462;2023-07-31T10:20:09;100425.03;;;20.27
72236;BMP280;60146;52.498;13.462;2023-07-31T10:22:36;100419.66;;;20.45
72236;BMP280;60146;52.498;13.462;2023-07-31T10:25:02;100417.00;;;20.45
72236;BMP280;60146;52.498;13.462;2023-07-31T10:27:27;100426.53;;;20.46
72236;BMP280;60146;52.498;13.462;2023-07-31T10:29:55;100410.44;;;20.39
72236;BMP280;60146;52.498;13.462;2023-07-31T10:32:21;100420.03;;;20.25
72236;BMP280;60146;52.498;13.462;2023-07-31T10:34:49;100410.50;;;20.43
72236;BMP280;60146;52.498;13.462;2023-07-31T10:37:27;100409.41;;;20.65
72236;BMP280;60146;52.498;13.462;2023-07-31T10:42:29;100411.28;;;20.87
72236;BMP280;60146;52.498;13.462;2023-07-31T10:47:58;100401.09;;;21.46
72236;BMP280;60146;52.498;13.462;2023-07-31T10:50:24;100413.28;;;21.76
72236;BMP280;60146;52.498;13.462;2023-07-31T10:52:54;100410.66;;;22.93
72236;BMP280;60146;52.498;13.462;2023-07-31T10:55:32;100426.91;;;24.24
72236;BMP280;60146;52.498;13.462;2023-07-31T10:58:05;100426.53;;;24.42
72236;BMP280;60146;52.498;13.462;2023-07-31T11:00:31;100435.72;;;24.62
72236;BMP280;60146;52.498;13.462;2023-07-31T11:06:02;100403.53;;;24.62
72236;BMP280;60146;52.498;13.462;2023-07-31T11:08:30;100426.47;;;24.28
72236;BMP280;60146;52.498;13.462;2023-07-31T11:13:28;100436.09;;;24.43
72236;BMP280;60146;52.498;13.462;2023-07-31T11:15:53;100413.81;;;24.05
72236;BMP280;60146;52.498;13.462;2023-07-31T11:18:19;100438.66;;;23.85
72236;BMP280;60146;52.498;13.462;2023-07-31T11:20:44;100415.50;;;23.37
72236;BMP280;60146;52.498;13.462;2023-07-31T11:23:10;100415.53;;;23.47
72236;BMP280;60146;52.498;13.462;2023-07-31T11:25:38;100435.06;;;23.51
72236;BMP280;60146;52.498;13.462;2023-07-31T11:28:10;100433.41;;;24.36
72236;BMP280;60146;52.498;13.462;2023-07-31T11:30:36;100448.72;;;24.39
72236;BMP280;60146;52.498;13.462;2023-07-31T11:33:03;100425.34;;;24.29
72236;BMP280;60146;52.498;13.462;2023-07-31T11:35:31;100427.13;;;23.68
72236;BMP280;60146;52.498;13.462;2023-07-31T11:37:56;100423.94;;;23.45
72236;BMP280;60146;52.498;13.462;2023-07-31T11:40:22;100422.84;;;23.56
72236;BMP280;60146;52.498;13.462;2023-07-31T11:42:47;100454.63;;;23.68
72236;BMP280;60146;52.498;13.462;2023-07-31T11:45:13;100427.72;;;23.38
72236;BMP280;60146;52.498;13.462;2023-07-31T11:47:38;100434.53;;;23.21
72236;BMP280;60146;52.498;13.462;2023-07-31T11:50:05;100424.09;;;23.06
72236;BMP280;60146;52.498;13.462;2023-07-31T11:52:43;100426.06;;;23.13
72236;BMP280;60146;52.498;13.462;2023-07-31T11:55:09;100418.09;;;23.20
72236;BMP280;60146;52.498;13.462;2023-07-31T11:57:37;100424.53;;;23.12
72236;BMP280;60146;52.498;13.462;2023-07-31T12:00:03;100416.75;;;22.93
72236;BMP280;60146;52.498;13.462;2023-07-31T12:02:29;100406.06;;;22.93
72236;BMP280;60146;52.498;13.462;2023-07-31T12:04:58;100413.06;;;22.62
72236;BMP280;60146;52.498;13.462;2023-07-31T12:07:24;100401.97;;;22.60
72236;BMP280;60146;52.498;13.462;2023-07-31T12:09:56;100401.81;;;22.40
72236;BMP280;60146;52.498;13.462;2023-07-31T12:12:23;100394.19;;;22.42
72236;BMP280;60146;52.498;13.462;2023-07-31T12:14:48;100397.22;;;22.44
72236;BMP280;60146;52.498;13.462;2023-07-31T12:17:16;100397.41;;;22.61
72236;BMP280;60146;52.498;13.462;2023-07-31T12:19:41;100395.25;;;22.80
72236;BMP280;60146;52.498;13.462;2023-07-31T12:22:14;100402.91;;;22.81
72236;BMP280;60146;52.498;13.462;2023-07-31T12:24:42;100396.72;;;22.70
72236;BMP280;60146;52.498;13.462;2023-07-31T12:27:14;100396.19;;;23.07
72236;BMP280;60146;52.498;13.462;2023-07-31T12:29:42;100402.16;;;23.47
72236;BMP280;60146;52.498;13.462;2023-07-31T12:32:21;100404.88;;;23.54
72236;BMP280;60146;52.498;13.462;2023-07-31T12:34:47;100407.91;;;23.49
72236;BMP280;60146;52.498;13.462;2023-07-31T12:37:13;100401.84;;;23.65
72236;BMP280;60146;52.498;13.462;2023-07-31T12:39:38;100390.88;;;23.97
72236;BMP280;60146;52.498;13.462;2023-07-31T12:42:04;100395.81;;;23.85
72236;BMP280;60146;52.498;13.462;2023-07-31T12:44:30;100393.06;;;23.72
72236;BMP280;60146;52.498;13.462;2023-07-31T12:46:55;100385.78;;;23.62
72236;BMP280;60146;52.498;13.462;2023-07-31T12:49:20;100380.41;;;23.65
72236;BMP280;60146;52.498;13.462;2023-07-31T12:51:46;100369.03;;;24.02
72236;BMP280;60146;52.498;13.462;2023-07-31T12:54:12;100390.88;;;24.11
72236;BMP280;60146;52.498;13.462;2023-07-31T12:56:37;100376.25;;;23.71
72236;BMP280;60146;52.498;13.462;2023-07-31T12:59:03;100381.28;;;23.96
72236;BMP280;60146;52.498;13.462;2023-07-31T13:01:28;100373.66;;;24.05
72236;BMP280;60146;52.498;13.462;2023-07-31T13:03:53;100378.66;;;24.24
72236;BMP280;60146;52.498;13.462;2023-07-31T13:06:19;100355.66;;;24.19
72236;BMP280;60146;52.498;13.462;2023-07-31T13:08:44;100354.16;;;23.94
72236;BMP280;60146;52.498;13.462;2023-07-31T13:11:10;100359.78;;;23.62
72236;BMP280;60146;52.498;13.462;2023-07-31T13:13:35;100353.25;;;23.53
72236;BMP280;60146;52.498;13.462;2023-07-31T13:16:01;100355.44;;;23.34
72236;BMP280;60146;52.498;13.462;2023-07-31T13:18:26;100357.69;;;23.19
72236;BMP280;60146;52.498;13.462;2023-07-31T13:20:52;100357.00;;;23.35
72236;BMP280;60146;52.498;13.462;2023-07-31T13:23:17;100345.88;;;23.20
72236;BMP280;60146;52.498;13.462;2023-07-31T13:25:42;100355.41;;;23.20
72236;BMP280;60146;52.498;13.462;2023-07-31T13:28:08;100358.78;;;23.11
72236;BMP280;60146;52.498;13.462;2023-07-31T13:30:33;100359.28;;;22.67
72236;BMP280;60146;52.498;13.462;2023-07-31T13:32:59;100339.72;;;22.56
72236;BMP280;60146;52.498;13.462;2023-07-31T13:35:24;100343.09;;;22.47
72236;BMP280;60146;52.498;13.462;2023-07-31T13:37:50;100345.72;;;22.92
72236;BMP280;60146;52.498;13.462;2023-07-31T13:40:15;100345.22;;;23.50
72236;BMP280;60146;52.498;13.462;2023-07-31T13:42:40;100338.75;;;23.61
72236;BMP280;60146;52.498;13.462;2023-07-31T13:45:06;100346.84;;;23.98
72236;BMP280;60146;52.498;13.462;2023-07-31T13:47:31;100341.47;;;24.02
72236;BMP280;60146;52.498;13.462;2023-07-31T13:49:57;100333.88;;;24.04
72236;BMP280;60146;52.498;13.462;2023-07-31T13:52:22;100332.34;;;24.44
72236;BMP280;60146;52.498;13.462;2023-07-31T13:54:48;100329.16;;;24.89
72236;BMP280;60146;52.498;13.462;2023-07-31T13:57:13;100337.25;;;24.76